New Castle Airport
KILG : now visible

Airfield :











YOU CAN JOIN US ON...

 
LOGIN :

Register | Disclaimer

   EN    FR    IT 

 









Legend :    VFR   Marginal VFR   IFR   Intensive IFR   Very Intensive IFR
Visi :
Ceiling :
>= 8 km
>= 3000ft
5 to 8 km
1000 to 3000 ft
1500m to 5 km
500 to 1000 ft
800 to 1500m
200 to 500 ft
< 800m
< 200 ft
Symbols :   Thunderstorms  Fog  Heavy snow  Heavy precipitations  Wind > 20 kt






- Airport Elevation : 80 ft
- IATA code : ILG


KILG - New Castle

CURRENT METAR :
  • 051851Z 29019G25KT 10SM BKN055 07/M06 A2992 RMK AO2 PK WND 31031/1810 SLP131 T00671056

EXPIRED METARs :
  • 051751Z 31020G29KT 10SM BKN060 07/M06 A2990 RMK AO2 PK WND 31032/1706 SLP125 T00671061 10078 20022 53001
  • 051651Z 30022G31KT 10SM FEW055 SCT070 06/M06 A2989 RMK AO2 PK WND 29031/1651 SLP124 T00611056

TAF KILG
Valid from the 05 at 18:00 until the 06 at 18:00 UTC


051723Z 0518/0618 31018G26KT P6SM BKN045
TEMPO 0518/0521 SCT045
FM052200 30009KT P6SM SCT045
FM061000 VRB04KT P6SM BKN200
FM061400 20007KT P6SM BKN150



MET'MAP, your aeronautical weather chart ! - Copyright ORBIFLY December 2007 - Disclaimer

ORBIFLY MET'MAP TEAM :

Programming & Development : Alexandra Zaïnal
Concept & original design : Baudouin d'Aumeries
Assistance for programming : Marc-Olivier Méhu
Technical & hardware support : Manuel Goepfert

Contact : metmap@orbifly.com




SOURCES & CREDITS :

   NOAA       Earth
Advisory